Terminal Aerodrome Forecast
Issued by NWS Wilmington, OH

Current Version | Previous Version | Text Only | Print | Product List | Glossary Off
Versions: 1 2 3 4 5 6 7 8 9 10 11 12 13 14 15 16 17

569
FTUS41 KILN 241725
TAFDAY
TAF
KDAY 241725Z 2418/2518 21007KT P6SM BKN250
     FM250100 18005KT P6SM BKN250
     FM250800 18005KT P6SM BKN070
     FM251300 20008KT P6SM VCSH BKN050=

USA.gov is the U.S. government's official web portal to all federal, state and local government web resources and services.